createdAt,value
2023-01-03T00:00:53.525Z,8.32
2023-01-03T00:03:36.526Z,6.05
2023-01-03T00:06:04.118Z,4.43
2023-01-03T00:08:31.643Z,3.78
2023-01-03T00:10:58.710Z,3.40
2023-01-03T00:13:28.880Z,3.10
2023-01-03T00:15:56.303Z,4.53
2023-01-03T00:18:23.669Z,4.10
2023-01-03T00:20:51.046Z,5.40
2023-01-03T00:23:18.488Z,4.00
2023-01-03T00:25:47.936Z,4.50
2023-01-03T00:28:15.780Z,3.58
2023-01-03T00:30:42.967Z,3.00
2023-01-03T00:33:10.523Z,3.97
2023-01-03T00:35:37.867Z,3.28
2023-01-03T00:38:05.249Z,2.78
2023-01-03T00:40:32.353Z,2.83
2023-01-03T00:43:02.188Z,2.85
2023-01-03T00:45:35.046Z,2.83
2023-01-03T00:50:30.159Z,2.35
2023-01-03T00:52:57.512Z,3.00
2023-01-03T00:55:24.778Z,2.90
2023-01-03T00:57:54.632Z,2.63
2023-01-03T01:00:24.141Z,2.75
2023-01-03T01:02:56.351Z,2.63
2023-01-03T01:05:23.797Z,2.58
2023-01-03T01:07:51.182Z,2.45
2023-01-03T01:10:18.423Z,1.95
2023-01-03T01:12:46.794Z,1.90
2023-01-03T01:15:16.426Z,2.45
2023-01-03T01:17:43.951Z,2.40
2023-01-03T01:20:11.019Z,2.38
2023-01-03T01:22:40.860Z,1.98
2023-01-03T01:25:10.461Z,1.70
2023-01-03T01:27:38.000Z,1.60
2023-01-03T01:30:07.725Z,1.50
2023-01-03T01:32:35.463Z,1.25
2023-01-03T01:35:03.004Z,1.23
2023-01-03T01:37:30.366Z,1.00
2023-01-03T01:39:57.555Z,1.20
2023-01-03T01:42:30.397Z,1.45
2023-01-03T01:45:00.972Z,1.20
2023-01-03T01:48:01.912Z,1.30
2023-01-03T01:50:40.040Z,1.45
2023-01-03T01:53:18.159Z,1.50
2023-01-03T01:56:07.936Z,1.20
2023-01-03T01:58:42.332Z,1.30
2023-01-03T02:01:17.696Z,1.40
2023-01-03T02:03:56.474Z,1.20
2023-01-03T02:06:29.607Z,1.77
2023-01-03T02:09:00.084Z,1.75
2023-01-03T02:11:42.457Z,1.98
2023-01-03T02:14:40.627Z,1.88
2023-01-03T02:17:23.139Z,2.00
2023-01-03T02:19:56.734Z,2.13
2023-01-03T02:22:26.687Z,1.90
2023-01-03T02:25:15.807Z,1.90
2023-01-03T02:28:01.791Z,1.65
2023-01-03T02:30:41.244Z,1.70
2023-01-03T02:33:24.314Z,2.22
2023-01-03T02:36:10.229Z,2.00
2023-01-03T02:38:47.958Z,1.92
2023-01-03T02:41:33.802Z,1.80
2023-01-03T02:44:22.639Z,1.67
2023-01-03T02:46:52.344Z,1.58
2023-01-03T02:49:30.291Z,1.67
2023-01-03T02:52:05.298Z,1.40
2023-01-03T02:54:58.448Z,1.40
2023-01-03T02:57:34.175Z,1.52
2023-01-03T03:00:14.860Z,1.45
2023-01-03T03:02:47.511Z,1.40
2023-01-03T03:05:25.590Z,1.17
2023-01-03T03:07:54.589Z,1.33
2023-01-03T03:10:22.569Z,1.20
2023-01-03T03:12:53.747Z,1.50
2023-01-03T03:15:24.033Z,1.38
2023-01-03T03:18:02.354Z,1.27
2023-01-03T03:20:29.475Z,1.27
2023-01-03T03:23:05.879Z,1.05
2023-01-03T03:25:44.840Z,1.38
2023-01-03T03:28:21.864Z,1.17
2023-01-03T03:30:54.564Z,1.38
2023-01-03T03:33:24.701Z,1.25
2023-01-03T03:36:02.694Z,1.08
2023-01-03T03:38:44.456Z,1.40
2023-01-03T03:41:33.315Z,1.50
2023-01-03T03:44:38.314Z,1.23
2023-01-03T03:47:19.539Z,1.42
2023-01-03T03:49:51.381Z,1.30
2023-01-03T03:52:25.394Z,1.58
2023-01-03T03:55:10.918Z,1.60
2023-01-03T03:57:52.574Z,1.40
2023-01-03T04:00:28.229Z,1.60
2023-01-03T04:02:57.100Z,1.40
2023-01-03T04:05:27.756Z,1.58
2023-01-03T04:07:54.837Z,1.42
2023-01-03T04:10:23.335Z,1.70
2023-01-03T04:12:53.788Z,1.30
2023-01-03T04:15:21.192Z,1.55
2023-01-03T04:17:51.098Z,1.50
2023-01-03T04:20:18.544Z,1.50
2023-01-03T04:22:45.632Z,1.85
2023-01-03T04:25:15.547Z,1.80
2023-01-03T04:27:42.802Z,1.65
2023-01-03T04:30:10.804Z,2.10
2023-01-03T04:32:40.327Z,1.90
2023-01-03T04:35:08.128Z,1.77
2023-01-03T04:37:35.242Z,2.17
2023-01-03T04:40:02.997Z,1.83
2023-01-03T04:42:30.109Z,2.00
2023-01-03T04:44:59.950Z,2.00
2023-01-03T04:47:27.233Z,1.90
2023-01-03T04:49:57.110Z,2.28
2023-01-03T04:52:24.206Z,1.90
2023-01-03T04:54:51.819Z,2.70
2023-01-03T04:57:18.946Z,2.38
2023-01-03T04:59:48.539Z,2.20
2023-01-03T05:02:18.313Z,2.65
2023-01-03T05:04:48.434Z,2.70
2023-01-03T05:07:15.612Z,2.60
2023-01-03T05:09:43.769Z,2.50
2023-01-03T05:12:10.865Z,2.53
2023-01-03T05:14:38.390Z,2.45
2023-01-03T05:17:05.630Z,2.42
2023-01-03T05:19:36.047Z,2.50
2023-01-03T05:22:08.450Z,2.42
2023-01-03T05:24:35.774Z,2.63
2023-01-03T05:27:05.539Z,2.72
2023-01-03T05:29:36.890Z,2.70
2023-01-03T05:32:07.081Z,2.90
2023-01-03T05:34:37.327Z,9.43
2023-01-03T05:37:06.566Z,3.42
2023-01-03T05:39:33.931Z,3.28
2023-01-03T05:42:01.307Z,3.83
2023-01-03T05:44:30.560Z,3.45
2023-01-03T05:47:02.351Z,3.22
2023-01-03T05:49:29.808Z,3.13
2023-01-03T05:52:01.593Z,3.33
2023-01-03T05:54:28.938Z,3.30
2023-01-03T05:56:56.320Z,3.35
2023-01-03T05:59:25.983Z,3.63
2023-01-03T06:01:55.727Z,3.03
2023-01-03T06:04:25.589Z,2.92
2023-01-03T06:06:52.801Z,2.88
2023-01-03T06:09:20.427Z,3.05
2023-01-03T06:11:49.709Z,3.25
2023-01-03T06:14:17.117Z,3.03
2023-01-03T06:16:44.370Z,3.20
2023-01-03T06:19:11.967Z,2.80
2023-01-03T06:21:39.281Z,3.85
2023-01-03T06:24:06.847Z,3.35
2023-01-03T06:26:34.213Z,3.25
2023-01-03T06:29:01.875Z,3.70
2023-01-03T06:31:31.588Z,3.10
2023-01-03T06:34:01.353Z,2.70
2023-01-03T06:36:28.493Z,2.97
2023-01-03T06:38:55.879Z,2.80
2023-01-03T06:41:23.062Z,2.97
2023-01-03T06:43:53.350Z,2.90
2023-01-03T06:46:20.518Z,2.45
2023-01-03T06:48:48.004Z,3.05
2023-01-03T06:51:18.321Z,3.05
2023-01-03T06:53:45.735Z,2.95
2023-01-03T06:56:13.026Z,2.90
2023-01-03T06:58:40.558Z,7.45
2023-01-03T07:01:07.856Z,3.17
2023-01-03T07:03:35.441Z,2.70
2023-01-03T07:06:02.540Z,2.90
2023-01-03T07:08:32.109Z,3.10
2023-01-03T07:10:59.426Z,3.30
2023-01-03T07:13:26.817Z,2.55
2023-01-03T07:15:53.948Z,2.50
2023-01-03T07:18:21.680Z,2.00
2023-01-03T07:20:50.934Z,1.80
2023-01-03T07:23:18.416Z,1.95
2023-01-03T07:25:45.544Z,1.67
2023-01-03T07:28:15.106Z,1.73
2023-01-03T07:30:46.206Z,1.60
2023-01-03T07:33:17.541Z,1.50
2023-01-03T07:35:47.272Z,1.67
2023-01-03T07:38:17.274Z,1.73
2023-01-03T07:40:44.438Z,1.65
2023-01-03T07:43:12.376Z,2.00
2023-01-03T07:45:41.056Z,2.20
2023-01-03T07:48:11.045Z,2.30
2023-01-03T07:50:38.548Z,2.58
2023-01-03T07:53:09.769Z,2.30
2023-01-03T07:55:37.884Z,2.15
2023-01-03T07:58:05.342Z,2.13
2023-01-03T08:00:32.567Z,2.05
2023-01-03T08:03:07.747Z,1.80
2023-01-03T08:05:37.989Z,1.90
2023-01-03T08:08:06.486Z,2.40
2023-01-03T08:10:33.638Z,1.90
2023-01-03T08:13:03.659Z,2.42
2023-01-03T08:15:30.729Z,1.90
2023-01-03T08:17:58.082Z,1.73
2023-01-03T08:20:25.833Z,2.03
2023-01-03T08:22:53.356Z,3.20
2023-01-03T08:25:20.747Z,2.25
2023-01-03T08:27:50.346Z,2.60
2023-01-03T08:30:20.153Z,2.55
2023-01-03T08:32:47.696Z,2.67
2023-01-03T08:35:17.422Z,2.55
2023-01-03T08:37:46.535Z,2.58
2023-01-03T08:40:17.636Z,2.13
2023-01-03T08:42:46.240Z,2.30
2023-01-03T08:45:17.464Z,3.47
2023-01-03T08:47:46.319Z,3.40
2023-01-03T08:50:15.812Z,2.50
2023-01-03T08:52:43.256Z,2.50
2023-01-03T08:55:10.596Z,2.20
2023-01-03T08:57:40.320Z,2.80
2023-01-03T09:00:08.194Z,2.00
2023-01-03T09:02:40.217Z,2.47
2023-01-03T09:05:08.655Z,2.00
2023-01-03T09:07:36.068Z,2.00
2023-01-03T09:10:03.397Z,2.00
2023-01-03T09:12:30.826Z,2.35
2023-01-03T09:14:57.952Z,2.22
2023-01-03T09:17:28.473Z,2.47
2023-01-03T09:19:58.121Z,3.05
2023-01-03T09:22:25.721Z,2.45
2023-01-03T09:24:52.875Z,2.55
2023-01-03T09:27:22.703Z,2.20
2023-01-03T09:29:52.245Z,2.00
2023-01-03T09:32:19.660Z,1.92
2023-01-03T09:34:49.094Z,2.05
2023-01-03T09:37:16.611Z,2.42
2023-01-03T09:39:45.916Z,2.55
2023-01-03T09:42:24.148Z,2.10
2023-01-03T09:44:54.323Z,2.30
2023-01-03T09:47:25.228Z,2.42
2023-01-03T09:50:27.368Z,4.03
2023-01-03T09:52:45.412Z,2.40
2023-01-03T09:55:39.626Z,2.00
2023-01-03T09:58:17.236Z,1.83
2023-01-03T10:00:50.695Z,2.50
2023-01-03T10:03:27.546Z,2.33
2023-01-03T10:06:17.558Z,2.65
2023-01-03T10:09:03.403Z,2.17
2023-01-03T10:11:36.435Z,2.47
2023-01-03T10:14:34.416Z,2.50
2023-01-03T10:17:33.655Z,2.30
2023-01-03T10:20:12.729Z,2.42
2023-01-03T10:22:40.661Z,2.30
2023-01-03T10:25:13.091Z,2.45
2023-01-03T10:27:51.714Z,2.30
2023-01-03T10:30:27.469Z,2.40
2023-01-03T10:33:22.483Z,2.20
2023-01-03T10:35:52.493Z,3.70
2023-01-03T10:38:19.929Z,3.22
2023-01-03T10:41:01.971Z,2.67
2023-01-03T10:43:33.444Z,2.13
2023-01-03T10:46:06.427Z,2.47
2023-01-03T10:49:25.190Z,3.20
2023-01-03T10:51:42.895Z,2.78
2023-01-03T10:54:28.539Z,2.30
2023-01-03T10:57:01.902Z,2.92
2023-01-03T10:59:33.384Z,2.22
2023-01-03T11:02:09.685Z,3.42
2023-01-03T11:04:36.805Z,3.78
2023-01-03T11:07:10.500Z,2.92
2023-01-03T11:09:52.062Z,3.03
2023-01-03T11:12:30.057Z,2.83
2023-01-03T11:15:00.349Z,3.72
2023-01-03T11:17:31.276Z,3.90
2023-01-03T11:19:58.483Z,2.80
2023-01-03T11:22:46.313Z,2.47
2023-01-03T11:25:27.287Z,2.35
2023-01-03T11:28:28.655Z,3.20
2023-01-03T11:30:58.942Z,3.60
2023-01-03T11:33:29.856Z,9.13
2023-01-03T11:36:05.695Z,3.45
2023-01-03T11:38:41.829Z,3.47
2023-01-03T11:41:11.772Z,2.70
2023-01-03T11:44:13.508Z,2.80
2023-01-03T11:46:55.819Z,2.90
2023-01-03T11:49:26.485Z,10.15
2023-01-03T11:52:28.018Z,6.88
2023-01-03T11:55:24.985Z,5.30
2023-01-03T11:58:01.034Z,2.42
2023-01-03T12:00:41.352Z,3.10
2023-01-03T12:03:16.891Z,2.65
2023-01-03T12:06:06.296Z,2.38
2023-01-03T12:08:33.364Z,2.70
2023-01-03T12:11:21.160Z,2.92
2023-01-03T12:13:54.280Z,3.38
2023-01-03T12:16:51.235Z,3.40
2023-01-03T12:19:39.867Z,3.00
2023-01-03T12:22:21.212Z,2.70
2023-01-03T12:25:05.236Z,2.45
2023-01-03T12:27:37.386Z,3.13
2023-01-03T12:30:24.709Z,2.38
2023-01-03T12:33:44.663Z,2.83
2023-01-03T12:36:30.885Z,3.22
2023-01-03T12:39:33.543Z,2.70
2023-01-03T12:42:39.740Z,2.75
2023-01-03T12:45:28.385Z,2.63
2023-01-03T12:48:23.992Z,3.35
2023-01-03T12:50:55.051Z,2.70
2023-01-03T12:53:43.404Z,2.90
2023-01-03T12:56:35.696Z,2.42
2023-01-03T12:59:30.206Z,2.72
2023-01-03T13:02:01.226Z,2.58
2023-01-03T13:04:28.339Z,3.17
2023-01-03T13:07:13.669Z,2.63
2023-01-03T13:09:49.057Z,2.72
2023-01-03T13:12:22.721Z,2.67
2023-01-03T13:14:57.505Z,2.65
2023-01-03T13:17:30.651Z,2.72
2023-01-03T13:20:16.580Z,2.08
2023-01-03T13:22:55.158Z,2.25
2023-01-03T13:25:38.740Z,2.63
2023-01-03T13:30:37.153Z,2.58
2023-01-03T13:33:04.449Z,2.70
2023-01-03T13:35:45.562Z,2.60
2023-01-03T13:38:33.021Z,2.47
2023-01-03T13:41:19.495Z,3.10
2023-01-03T13:43:51.599Z,3.17
2023-01-03T13:46:32.522Z,2.70
2023-01-03T13:49:07.878Z,2.75
2023-01-03T13:51:45.648Z,3.20
2023-01-03T13:54:13.039Z,2.60
2023-01-03T13:56:43.311Z,7.10
2023-01-03T13:59:19.693Z,4.57
2023-01-03T14:02:24.223Z,5.90
2023-01-03T14:05:11.297Z,3.15
2023-01-03T14:08:07.340Z,2.10
2023-01-03T14:10:58.083Z,2.35
2023-01-03T14:13:46.990Z,3.00
2023-01-03T14:16:28.349Z,2.30
2023-01-03T14:19:17.296Z,2.60
2023-01-03T14:21:55.803Z,2.90
2023-01-03T14:24:29.135Z,2.85
2023-01-03T14:31:58.486Z,3.17
2023-01-03T14:34:33.470Z,3.33
2023-01-03T14:37:05.338Z,2.83
2023-01-03T14:42:03.941Z,3.92
2023-01-03T14:44:34.862Z,4.20
2023-01-03T14:47:14.411Z,3.72
2023-01-03T14:49:47.757Z,3.50
2023-01-03T14:52:31.182Z,4.25
2023-01-03T14:55:06.344Z,8.18
2023-01-03T14:57:38.424Z,5.90
2023-01-03T15:00:08.262Z,5.32
2023-01-03T15:02:41.108Z,3.10
2023-01-03T15:05:33.189Z,3.10
2023-01-03T15:08:15.744Z,2.58
2023-01-03T15:10:54.338Z,2.10
2023-01-03T15:13:34.484Z,2.65
2023-01-03T15:16:04.666Z,3.63
2023-01-03T15:18:35.951Z,4.03
2023-01-03T15:21:06.054Z,3.53
2023-01-03T15:23:40.163Z,6.68
2023-01-03T15:28:51.100Z,9.48
2023-01-03T15:31:28.523Z,9.80
2023-01-03T15:34:03.494Z,8.10
2023-01-03T15:36:32.347Z,4.30
2023-01-03T15:39:02.393Z,3.03
2023-01-03T15:41:31.992Z,2.38
2023-01-03T15:44:01.946Z,6.93
2023-01-03T15:46:29.422Z,10.20
2023-01-03T15:48:57.542Z,6.70
2023-01-03T15:51:24.607Z,3.55
2023-01-03T15:53:52.220Z,2.05
2023-01-03T15:56:21.008Z,2.50
2023-01-03T15:58:54.772Z,3.40
2023-01-03T16:01:23.504Z,2.17
2023-01-03T16:03:52.374Z,2.30
2023-01-03T16:06:19.532Z,2.80
2023-01-03T16:08:47.134Z,1.95
2023-01-03T16:11:20.659Z,1.98
2023-01-03T16:13:56.712Z,2.65
2023-01-03T16:16:36.188Z,2.97
2023-01-03T16:19:05.725Z,2.80
2023-01-03T16:21:33.495Z,2.22
2023-01-03T16:24:00.991Z,2.45
2023-01-03T16:26:28.407Z,2.80
2023-01-03T16:28:57.969Z,2.45
2023-01-03T16:31:33.693Z,3.75
2023-01-03T16:34:04.021Z,10.10
2023-01-03T16:36:38.993Z,9.10
2023-01-03T16:39:18.525Z,4.47
2023-01-03T16:41:46.642Z,4.95
2023-01-03T16:44:13.955Z,4.28
2023-01-03T16:46:41.054Z,4.45
2023-01-03T16:49:10.955Z,4.18
2023-01-03T16:51:47.237Z,3.95
2023-01-03T16:54:19.747Z,3.97
2023-01-03T16:56:46.926Z,4.15
2023-01-03T16:59:23.550Z,4.60
2023-01-03T17:01:50.746Z,5.60
2023-01-03T17:04:22.783Z,4.10
2023-01-03T17:06:49.887Z,5.22
2023-01-03T17:09:26.119Z,5.15
2023-01-03T17:11:53.508Z,6.88
2023-01-03T17:14:22.677Z,6.75
2023-01-03T17:16:50.397Z,6.68
2023-01-03T17:22:17.008Z,6.30
2023-01-03T17:24:45.219Z,5.57
2023-01-03T17:27:18.266Z,6.13
2023-01-03T17:29:50.480Z,6.18
2023-01-03T17:32:19.881Z,5.38
2023-01-03T17:34:47.839Z,6.00
2023-01-03T17:37:18.719Z,6.80
2023-01-03T17:39:54.215Z,5.90
2023-01-03T17:42:21.954Z,5.93
2023-01-03T17:44:55.750Z,7.93
2023-01-03T17:47:23.473Z,12.13
2023-01-03T17:49:50.821Z,13.32
2023-01-03T17:52:28.999Z,13.38
2023-01-03T17:54:59.499Z,12.32
2023-01-03T17:57:26.552Z,11.98
2023-01-03T17:59:54.072Z,11.70
2023-01-03T18:02:25.868Z,11.65
2023-01-03T18:07:41.883Z,12.27
2023-01-03T18:10:47.236Z,12.77
2023-01-03T18:13:37.025Z,12.63
2023-01-03T18:16:04.763Z,12.90
2023-01-03T18:18:32.809Z,12.57
2023-01-03T18:21:02.978Z,11.48
2023-01-03T18:23:37.470Z,11.35
2023-01-03T18:26:08.356Z,13.45
2023-01-03T18:28:35.922Z,11.43
2023-01-03T18:31:03.627Z,11.45
2023-01-03T18:33:30.915Z,12.07
2023-01-03T18:36:00.997Z,12.23
2023-01-03T18:38:35.496Z,13.10
2023-01-03T18:41:05.827Z,11.88
2023-01-03T18:43:33.924Z,11.57
2023-01-03T18:46:01.537Z,11.88
2023-01-03T18:48:31.396Z,12.48
2023-01-03T18:50:59.836Z,11.27
2023-01-03T18:53:30.691Z,13.70
2023-01-03T18:55:58.506Z,12.20
2023-01-03T18:58:34.235Z,11.43
2023-01-03T19:01:01.742Z,11.90
2023-01-03T19:03:31.382Z,11.40
2023-01-03T19:06:00.629Z,11.75
2023-01-03T19:08:33.454Z,11.27
2023-01-03T19:11:18.434Z,13.38
2023-01-03T19:13:50.965Z,14.15
2023-01-03T19:16:28.407Z,15.50
2023-01-03T19:18:58.706Z,16.08
2023-01-03T19:21:31.519Z,16.30
2023-01-03T19:23:58.654Z,13.07
2023-01-03T19:26:34.340Z,13.57
2023-01-03T19:29:04.554Z,13.23
2023-01-03T19:31:44.164Z,10.93
2023-01-03T19:34:21.572Z,12.18
2023-01-03T19:36:51.646Z,10.68
2023-01-03T19:39:24.683Z,21.98
2023-01-03T19:41:57.271Z,11.75
2023-01-03T19:44:25.400Z,11.52
2023-01-03T19:46:52.858Z,11.38
2023-01-03T19:49:22.893Z,11.98
2023-01-03T19:51:52.868Z,11.45
2023-01-03T19:54:23.031Z,12.45
2023-01-03T19:56:57.074Z,11.32
2023-01-03T19:59:36.037Z,11.57
2023-01-03T20:02:25.267Z,11.75
2023-01-03T20:04:53.298Z,11.27
2023-01-03T20:07:20.789Z,10.95
2023-01-03T20:09:47.845Z,10.43
2023-01-03T20:12:17.425Z,10.63
2023-01-03T20:14:50.713Z,9.30
2023-01-03T20:17:23.506Z,9.65
2023-01-03T20:19:53.560Z,10.82
2023-01-03T20:23:02.685Z,11.45
2023-01-03T20:25:30.384Z,11.38
2023-01-03T20:27:59.020Z,14.60
2023-01-03T20:30:28.216Z,12.35
2023-01-03T20:32:56.169Z,11.13
2023-01-03T20:38:13.498Z,12.27
2023-01-03T20:40:40.626Z,12.55
2023-01-03T20:43:13.953Z,13.10
2023-01-03T20:45:41.455Z,20.35
2023-01-03T20:48:25.169Z,35.38
2023-01-03T20:50:56.058Z,14.23
2023-01-03T20:53:27.443Z,13.90
2023-01-03T20:55:54.704Z,13.50
2023-01-03T20:58:25.440Z,31.10
2023-01-03T21:00:59.894Z,24.45
2023-01-03T21:03:32.828Z,21.83
2023-01-03T21:05:59.963Z,24.70
2023-01-03T21:08:27.432Z,25.85
2023-01-03T21:10:54.647Z,26.83
2023-01-03T21:13:22.458Z,25.48
2023-01-03T21:15:52.025Z,24.38
2023-01-03T21:18:19.597Z,23.90
2023-01-03T21:20:49.093Z,24.77
2023-01-03T21:23:21.838Z,24.45
2023-01-03T21:25:49.765Z,22.17
2023-01-03T21:28:17.203Z,23.52
2023-01-03T21:30:44.405Z,24.80
2023-01-03T21:33:18.881Z,25.80
2023-01-03T21:35:46.112Z,26.10
2023-01-03T21:38:13.709Z,26.35
2023-01-03T21:40:40.785Z,28.02
2023-01-03T21:43:10.010Z,26.63
2023-01-03T21:45:43.915Z,21.63
2023-01-03T21:48:15.695Z,22.10
2023-01-03T21:50:48.335Z,20.10
2023-01-03T21:53:17.119Z,19.23
2023-01-03T21:55:44.680Z,18.90
2023-01-03T21:58:16.577Z,14.05
2023-01-03T22:00:46.195Z,13.07
2023-01-03T22:03:17.507Z,14.68
2023-01-03T22:05:44.653Z,9.07
2023-01-03T22:08:14.433Z,14.13
2023-01-03T22:10:41.520Z,14.20
2023-01-03T22:13:10.093Z,12.18
2023-01-03T22:15:38.702Z,12.13
2023-01-03T22:18:06.352Z,10.38
2023-01-03T22:20:38.256Z,12.20
2023-01-03T22:23:06.638Z,14.43
2023-01-03T22:25:36.422Z,12.13
2023-01-03T22:28:04.089Z,11.55
2023-01-03T22:30:31.204Z,16.15
2023-01-03T22:32:58.726Z,18.42
2023-01-03T22:35:25.853Z,21.20
2023-01-03T22:37:55.935Z,20.02
2023-01-03T22:40:23.200Z,25.27
2023-01-03T22:42:53.013Z,26.45
2023-01-03T22:45:20.058Z,32.22
2023-01-03T22:47:47.503Z,34.63
2023-01-03T22:50:14.571Z,34.25
2023-01-03T22:52:44.163Z,35.35
2023-01-03T22:55:14.014Z,37.80
2023-01-03T22:57:41.321Z,35.88
2023-01-03T23:00:08.967Z,38.85
2023-01-03T23:02:41.802Z,38.13
2023-01-03T23:05:09.527Z,38.17
2023-01-03T23:07:39.435Z,41.67
2023-01-03T23:10:07.176Z,42.42
2023-01-03T23:12:34.524Z,34.78
2023-01-03T23:15:02.225Z,25.52
2023-01-03T23:17:29.602Z,17.00
2023-01-03T23:19:59.239Z,34.55
2023-01-03T23:22:29.169Z,33.38
2023-01-03T23:24:56.244Z,27.90
2023-01-03T23:27:24.352Z,21.02
2023-01-03T23:29:51.404Z,19.92
2023-01-03T23:32:18.755Z,21.25
2023-01-03T23:34:45.844Z,23.55
2023-01-03T23:37:15.920Z,25.70
2023-01-03T23:39:42.977Z,20.75
2023-01-03T23:42:10.707Z,24.83
2023-01-03T23:44:40.010Z,22.85
2023-01-03T23:47:12.063Z,19.75
2023-01-03T23:49:42.530Z,21.52
2023-01-03T23:52:12.167Z,22.50
2023-01-03T23:54:39.311Z,18.77
2023-01-03T23:57:09.810Z,19.77
2023-01-03T23:59:36.844Z,24.20
